createdAt,value
2019-03-11T00:03:37.466Z,92.60
2019-03-11T00:08:39.000Z,92.60
2019-03-11T00:13:42.006Z,92.60
2019-03-11T00:18:43.864Z,92.90
2019-03-11T00:23:45.341Z,93.10
2019-03-11T00:28:46.680Z,93.30
2019-03-11T00:33:48.110Z,93.60
2019-03-11T00:38:51.874Z,93.90
2019-03-11T00:43:53.317Z,94.00
2019-03-11T00:49:00.006Z,94.00
2019-03-11T00:54:01.702Z,94.00
2019-03-11T00:59:04.322Z,93.90
2019-03-11T01:04:05.995Z,93.90
2019-03-11T01:09:07.403Z,93.90
2019-03-11T01:14:09.037Z,93.90
2019-03-11T01:19:10.424Z,94.00
2019-03-11T01:24:11.798Z,94.10
2019-03-11T01:29:13.073Z,94.10
2019-03-11T01:34:14.400Z,94.10
2019-03-11T01:39:15.718Z,94.00
2019-03-11T01:44:17.138Z,93.90
2019-03-11T01:49:18.645Z,93.30
2019-03-11T01:54:20.082Z,93.10
2019-03-11T01:59:21.496Z,92.90
2019-03-11T02:04:22.923Z,92.60
2019-03-11T02:09:24.317Z,92.40
2019-03-11T02:14:44.083Z,92.40
2019-03-11T02:19:47.584Z,92.50
2019-03-11T02:24:48.895Z,92.50
2019-03-11T02:29:50.363Z,92.70
2019-03-11T02:34:53.587Z,92.70
2019-03-11T02:39:56.635Z,92.80
2019-03-11T02:45:02.526Z,92.80
2019-03-11T02:50:09.259Z,92.90
2019-03-11T02:55:12.693Z,92.80
2019-03-11T03:00:18.499Z,92.60
2019-03-11T03:05:21.834Z,92.50
2019-03-11T03:10:23.358Z,92.30
2019-03-11T03:15:25.189Z,92.10
2019-03-11T03:20:26.523Z,91.90
2019-03-11T03:25:33.736Z,91.70
2019-03-11T03:30:31.432Z,91.30
2019-03-11T03:35:34.069Z,91.00
2019-03-11T03:40:35.572Z,91.60
2019-03-11T03:45:40.021Z,91.40
2019-03-11T03:50:44.795Z,91.30
2019-03-11T03:55:46.332Z,91.30
2019-03-11T04:00:47.898Z,91.20
2019-03-11T04:05:50.722Z,90.70
2019-03-11T04:10:52.261Z,90.90
2019-03-11T04:15:54.137Z,91.20
2019-03-11T04:20:57.656Z,91.40
2019-03-11T04:26:01.193Z,91.40
2019-03-11T04:31:02.905Z,91.20
2019-03-11T04:36:04.899Z,91.20
2019-03-11T04:41:07.606Z,91.10
2019-03-11T04:46:09.689Z,91.30
2019-03-11T04:51:13.469Z,90.90
2019-03-11T04:56:33.313Z,91.40
2019-03-11T05:01:35.792Z,91.90
2019-03-11T05:06:38.896Z,92.90
2019-03-11T05:11:41.613Z,93.20
2019-03-11T05:16:47.621Z,93.30
2019-03-11T05:21:49.120Z,93.50
2019-03-11T05:26:51.155Z,93.60
2019-03-11T05:31:52.601Z,93.80
2019-03-11T05:36:55.149Z,93.90
2019-03-11T05:41:56.588Z,94.10
2019-03-11T05:47:01.534Z,94.00
2019-03-11T05:52:04.623Z,94.10
2019-03-11T05:57:06.037Z,93.80
2019-03-11T06:02:09.336Z,93.90
2019-03-11T06:07:10.872Z,93.50
2019-03-11T06:12:18.911Z,93.40
2019-03-11T06:17:20.426Z,93.10
2019-03-11T06:22:24.400Z,92.60
2019-03-11T06:27:27.033Z,92.40
2019-03-11T06:32:28.349Z,92.30
2019-03-11T06:37:30.095Z,92.00
2019-03-11T06:42:33.617Z,91.80
2019-03-11T06:47:35.055Z,91.70
2019-03-11T06:52:36.649Z,91.70
2019-03-11T06:57:39.993Z,91.50
2019-03-11T07:02:41.383Z,91.70
2019-03-11T07:07:42.989Z,91.90
2019-03-11T07:12:47.121Z,92.00
2019-03-11T07:17:48.622Z,91.90
2019-03-11T07:22:50.066Z,92.00
2019-03-11T07:27:51.448Z,92.30
2019-03-11T07:32:53.269Z,92.40
2019-03-11T07:37:54.631Z,92.40
2019-03-11T07:42:56.009Z,92.30
2019-03-11T07:47:57.339Z,92.40
2019-03-11T07:52:58.857Z,92.30
2019-03-11T07:58:00.307Z,92.40
2019-03-11T08:03:01.761Z,92.70
2019-03-11T08:08:05.132Z,92.90
2019-03-11T08:13:10.642Z,92.80
2019-03-11T08:18:11.981Z,92.50
2019-03-11T08:23:15.789Z,92.40
2019-03-11T08:28:18.571Z,92.70
2019-03-11T08:33:23.287Z,92.80
2019-03-11T08:38:28.198Z,93.10
2019-03-11T08:43:29.920Z,92.30
2019-03-11T08:48:31.230Z,92.90
2019-03-11T08:53:32.540Z,94.00
2019-03-11T08:58:34.080Z,94.40
2019-03-11T09:03:35.381Z,94.10
2019-03-11T09:08:36.833Z,93.80
2019-03-11T09:13:38.513Z,93.50
2019-03-11T09:18:41.740Z,93.20
2019-03-11T09:23:43.480Z,91.10
2019-03-11T09:28:45.025Z,92.80
2019-03-11T09:33:46.341Z,94.30
2019-03-11T09:38:47.890Z,94.40
2019-03-11T09:43:49.323Z,94.00
2019-03-11T09:48:51.034Z,93.60
2019-03-11T09:53:54.069Z,93.50
2019-03-11T09:58:57.901Z,93.30
2019-03-11T10:03:59.849Z,92.90
2019-03-11T10:09:01.337Z,92.10
2019-03-11T10:14:03.027Z,91.60
2019-03-11T10:19:06.209Z,91.50
2019-03-11T10:24:07.544Z,90.90
2019-03-11T10:29:08.939Z,90.60
2019-03-11T10:34:10.418Z,90.30
2019-03-11T10:39:32.207Z,90.60
2019-03-11T10:44:33.645Z,90.70
2019-03-11T10:49:34.971Z,90.60
2019-03-11T10:54:39.771Z,89.20
2019-03-11T10:59:43.223Z,88.00
2019-03-11T11:04:44.745Z,88.30
2019-03-11T11:09:46.246Z,85.80
2019-03-11T11:14:47.885Z,85.00
2019-03-11T11:20:02.771Z,85.00
2019-03-11T11:25:02.589Z,84.60
2019-03-11T11:30:18.408Z,83.60
2019-03-11T11:35:21.296Z,82.80
2019-03-11T11:40:30.535Z,82.10
2019-03-11T11:45:33.987Z,82.20
2019-03-11T11:50:35.307Z,82.90
2019-03-11T11:55:36.898Z,82.20
2019-03-11T12:00:40.636Z,79.90
2019-03-11T12:05:42.195Z,79.30
2019-03-11T12:16:09.172Z,79.00
2019-03-11T12:21:14.840Z,78.90
2019-03-11T12:26:18.549Z,79.30
2019-03-11T12:31:22.802Z,79.50
2019-03-11T12:36:24.257Z,79.40
2019-03-11T12:41:26.136Z,79.40
2019-03-11T12:46:27.662Z,78.70
2019-03-11T12:51:30.262Z,78.60
2019-03-11T12:56:33.531Z,77.70
2019-03-11T13:01:34.885Z,77.20
2019-03-11T13:06:37.420Z,78.00
2019-03-11T13:11:38.773Z,78.30
2019-03-11T13:16:40.120Z,77.50
2019-03-11T13:21:42.085Z,77.60
2019-03-11T13:26:43.577Z,77.80
2019-03-11T13:31:45.315Z,77.10
2019-03-11T13:36:46.745Z,77.80
2019-03-11T13:41:48.281Z,77.50
2019-03-11T13:46:50.109Z,76.20
2019-03-11T13:51:53.390Z,75.50
2019-03-11T13:56:54.924Z,75.60
2019-03-11T14:07:18.392Z,75.10
2019-03-11T14:12:19.783Z,74.80
2019-03-11T14:17:21.624Z,75.30
2019-03-11T14:22:23.085Z,75.40
2019-03-11T14:27:25.314Z,75.40
2019-03-11T14:32:31.354Z,74.10
2019-03-11T14:37:32.802Z,72.80
2019-03-11T14:42:36.986Z,73.30
2019-03-11T14:47:38.547Z,72.80
2019-03-11T14:52:40.690Z,72.80
2019-03-11T14:57:45.292Z,72.20
2019-03-11T15:02:52.539Z,70.80
2019-03-11T15:07:55.313Z,70.00
2019-03-11T15:12:57.402Z,70.00
2019-03-11T15:18:03.725Z,69.60
2019-03-11T15:23:20.304Z,70.80
2019-03-11T15:28:18.083Z,70.80
2019-03-11T15:33:19.927Z,71.10
2019-03-11T15:38:21.990Z,71.40
2019-03-11T15:43:23.439Z,71.50
2019-03-11T15:48:28.951Z,72.00
2019-03-11T15:53:30.600Z,72.70
2019-03-11T15:58:32.063Z,73.30
2019-03-11T16:03:36.487Z,73.50
2019-03-11T16:08:37.459Z,73.70
2019-03-11T16:13:41.262Z,74.50
2019-03-11T16:18:44.733Z,74.30
2019-03-11T16:23:47.642Z,74.60
2019-03-11T16:28:50.546Z,75.00
2019-03-11T16:33:52.326Z,74.50
2019-03-11T16:38:58.567Z,73.40
2019-03-11T16:44:02.045Z,73.10
2019-03-11T16:49:03.702Z,73.60
2019-03-11T16:54:07.249Z,73.70
2019-03-11T16:59:12.537Z,74.30
2019-03-11T17:04:16.084Z,75.00
2019-03-11T17:09:18.388Z,75.60
2019-03-11T17:14:22.756Z,75.80
2019-03-11T17:19:24.416Z,75.90
2019-03-11T17:24:30.865Z,76.10
2019-03-11T17:29:35.214Z,76.50
2019-03-11T17:34:38.564Z,76.50
2019-03-11T17:39:39.994Z,77.20
2019-03-11T17:44:41.252Z,77.50
2019-03-11T17:50:02.883Z,77.70
2019-03-11T17:55:08.811Z,77.90
2019-03-11T18:00:19.247Z,78.80
2019-03-11T18:05:23.875Z,78.20
2019-03-11T18:10:27.059Z,78.50
2019-03-11T18:15:30.395Z,78.60
2019-03-11T18:20:33.891Z,78.80
2019-03-11T18:25:35.563Z,78.90
2019-03-11T18:30:38.067Z,79.10
2019-03-11T18:35:39.573Z,79.40
2019-03-11T18:40:41.313Z,79.60
2019-03-11T18:45:45.071Z,79.90
2019-03-11T18:50:46.490Z,80.20
2019-03-11T18:55:48.239Z,80.60
2019-03-11T19:00:49.786Z,80.80
2019-03-11T19:05:51.779Z,80.90
2019-03-11T19:16:14.845Z,81.50
2019-03-11T19:21:17.104Z,81.90
2019-03-11T19:26:18.872Z,82.50
2019-03-11T19:31:22.023Z,82.80
2019-03-11T19:36:25.452Z,82.80
2019-03-11T19:41:28.631Z,83.10
2019-03-11T19:46:30.011Z,83.20
2019-03-11T19:51:33.749Z,83.70
2019-03-11T19:56:35.394Z,84.10
2019-03-11T20:01:37.915Z,84.40
2019-03-11T20:06:39.577Z,85.00
2019-03-11T20:11:45.937Z,85.20
2019-03-11T20:16:47.940Z,85.30
2019-03-11T20:21:50.811Z,85.30
2019-03-11T20:26:52.521Z,85.50
2019-03-11T20:31:54.028Z,85.50
2019-03-11T20:36:55.834Z,85.60
2019-03-11T20:41:59.308Z,85.80
2019-03-11T20:47:03.184Z,86.00
2019-03-11T20:52:28.441Z,86.30
2019-03-11T20:57:29.051Z,86.50
2019-03-11T21:02:32.421Z,86.90
2019-03-11T21:07:35.345Z,87.10
2019-03-11T21:12:38.795Z,87.20
2019-03-11T21:17:40.387Z,87.50
2019-03-11T21:22:45.919Z,87.80
2019-03-11T21:27:51.195Z,88.10
2019-03-11T21:32:52.868Z,88.30
2019-03-11T21:37:56.190Z,88.80
2019-03-11T21:42:57.996Z,89.20
2019-03-11T21:47:59.448Z,90.00
2019-03-11T21:53:01.165Z,90.10
2019-03-11T21:58:12.506Z,90.00
2019-03-11T22:03:07.044Z,90.20
2019-03-11T22:08:15.920Z,90.20
2019-03-11T22:13:17.221Z,90.40
2019-03-11T22:18:19.060Z,90.60
2019-03-11T22:23:20.655Z,90.90
2019-03-11T22:28:23.271Z,90.70
2019-03-11T22:33:24.707Z,90.60
2019-03-11T22:38:27.927Z,90.60
2019-03-11T22:43:34.347Z,90.80
2019-03-11T22:48:35.960Z,90.80
2019-03-11T22:53:37.446Z,90.70
2019-03-11T22:58:39.117Z,90.70
2019-03-11T23:03:49.779Z,90.80
2019-03-11T23:08:46.032Z,90.80
2019-03-11T23:13:47.389Z,90.70
2019-03-11T23:18:48.865Z,90.90
2019-03-11T23:23:52.604Z,91.00
2019-03-11T23:28:54.503Z,91.00
2019-03-11T23:33:57.489Z,91.10
2019-03-11T23:38:58.976Z,91.40
2019-03-11T23:44:02.313Z,91.60
2019-03-11T23:49:03.966Z,91.60
2019-03-11T23:54:06.047Z,91.50
2019-03-11T23:59:10.506Z,91.90
